<?xml version="1.0" encoding="UTF-8" standalone="no" ?>
<gpx xmlns="http://www.topografix.com/GPX/1/1" xmlns:xsi="http://www.w3.org/2001/XMLSchema-instance" xsi:schemaLocation="http://www.topografix.com/GPX/1/1 http://www.topografix.com/GPX/1/1/gpx.xsd" version="1.1" creator="VisuGPX - https://www.visugpx.com">
  <metadata>
    <name>Grignan-Rando de la Marquise (Drôme)</name>
    <desc><![CDATA[Randonnée facile au départ de Grignan]]></desc>
  </metadata>
  <trk>
    <name><![CDATA[Grignan - Sur les pas de la Marquise - F]]></name>
    <trkseg>
      <trkpt lat="44.42066" lon="4.90914">
        <ele>200</ele>
        <time>2021-05-31T07:00:00.32Z</time>
      </trkpt>
      <trkpt lat="44.42089" lon="4.90911">
        <ele>198</ele>
        <time>2021-05-31T07:00:28.75Z</time>
      </trkpt>
      <trkpt lat="44.42098" lon="4.9089">
        <ele>199</ele>
        <time>2021-05-31T07:00:47.82Z</time>
      </trkpt>
      <trkpt lat="44.42107" lon="4.90891">
        <ele>199</ele>
        <time>2021-05-31T07:00:58.09Z</time>
      </trkpt>
      <trkpt lat="44.42126" lon="4.90872">
        <ele>199</ele>
        <time>2021-05-31T07:01:24.13Z</time>
      </trkpt>
      <trkpt lat="44.42209" lon="4.90941">
        <ele>199</ele>
        <time>2021-05-31T07:03:11.83Z</time>
      </trkpt>
      <trkpt lat="44.42244" lon="4.90956">
        <ele>199</ele>
        <time>2021-05-31T07:03:53.19Z</time>
      </trkpt>
      <trkpt lat="44.42334" lon="4.90979">
        <ele>201</ele>
        <time>2021-05-31T07:05:40.23Z</time>
      </trkpt>
      <trkpt lat="44.42354" lon="4.91058">
        <ele>203</ele>
        <time>2021-05-31T07:06:51.35Z</time>
      </trkpt>
      <trkpt lat="44.42363" lon="4.91071">
        <ele>203</ele>
        <time>2021-05-31T07:07:06.21Z</time>
      </trkpt>
      <trkpt lat="44.42399" lon="4.91086">
        <ele>205</ele>
        <time>2021-05-31T07:07:50.53Z</time>
      </trkpt>
      <trkpt lat="44.4242" lon="4.91106">
        <ele>205</ele>
        <time>2021-05-31T07:08:19.97Z</time>
      </trkpt>
      <trkpt lat="44.42431" lon="4.91127">
        <ele>206</ele>
        <time>2021-05-31T07:08:41.23Z</time>
      </trkpt>
      <trkpt lat="44.42443" lon="4.91173">
        <ele>206</ele>
        <time>2021-05-31T07:09:21.67Z</time>
      </trkpt>
      <trkpt lat="44.42505" lon="4.91193">
        <ele>209</ele>
        <time>2021-05-31T07:10:40.63Z</time>
      </trkpt>
      <trkpt lat="44.42604" lon="4.9124">
        <ele>216</ele>
        <time>2021-05-31T07:12:48.90Z</time>
      </trkpt>
      <trkpt lat="44.42692" lon="4.91294">
        <ele>221</ele>
        <time>2021-05-31T07:14:43.54Z</time>
      </trkpt>
      <trkpt lat="44.42743" lon="4.91354">
        <ele>222</ele>
        <time>2021-05-31T07:15:58.52Z</time>
      </trkpt>
      <trkpt lat="44.42759" lon="4.91364">
        <ele>222</ele>
        <time>2021-05-31T07:16:18.10Z</time>
      </trkpt>
      <trkpt lat="44.42819" lon="4.91428">
        <ele>222</ele>
        <time>2021-05-31T07:17:41.57Z</time>
      </trkpt>
      <trkpt lat="44.42829" lon="4.9146">
        <ele>222</ele>
        <time>2021-05-31T07:18:09.93Z</time>
      </trkpt>
      <trkpt lat="44.42859" lon="4.91598">
        <ele>222</ele>
        <time>2021-05-31T07:20:04.82Z</time>
      </trkpt>
      <trkpt lat="44.42925" lon="4.91807">
        <ele>222</ele>
        <time>2021-05-31T07:23:07.49Z</time>
      </trkpt>
      <trkpt lat="44.43022" lon="4.92012">
        <ele>223</ele>
        <time>2021-05-31T07:26:26.08Z</time>
      </trkpt>
      <trkpt lat="44.43072" lon="4.92203">
        <ele>225</ele>
        <time>2021-05-31T07:29:18.67Z</time>
      </trkpt>
      <trkpt lat="44.43066" lon="4.92229">
        <ele>227</ele>
        <time>2021-05-31T07:29:41.47Z</time>
      </trkpt>
      <trkpt lat="44.43077" lon="4.92272">
        <ele>230</ele>
        <time>2021-05-31T07:30:23.31Z</time>
      </trkpt>
      <trkpt lat="44.43081" lon="4.92439">
        <ele>238</ele>
        <time>2021-05-31T07:32:46.41Z</time>
      </trkpt>
      <trkpt lat="44.43068" lon="4.92521">
        <ele>238</ele>
        <time>2021-05-31T07:33:55.08Z</time>
      </trkpt>
      <trkpt lat="44.43067" lon="4.9258">
        <ele>239</ele>
        <time>2021-05-31T07:34:42.16Z</time>
      </trkpt>
      <trkpt lat="44.43052" lon="4.92729">
        <ele>239</ele>
        <time>2021-05-31T07:36:45.81Z</time>
      </trkpt>
      <trkpt lat="44.43052" lon="4.92821">
        <ele>242</ele>
        <time>2021-05-31T07:38:03.65Z</time>
      </trkpt>
      <trkpt lat="44.43056" lon="4.92899">
        <ele>243</ele>
        <time>2021-05-31T07:39:05.91Z</time>
      </trkpt>
      <trkpt lat="44.43051" lon="4.93062">
        <ele>243</ele>
        <time>2021-05-31T07:41:15.80Z</time>
      </trkpt>
      <trkpt lat="44.43025" lon="4.93094">
        <ele>243</ele>
        <time>2021-05-31T07:41:54.29Z</time>
      </trkpt>
      <trkpt lat="44.43011" lon="4.93133">
        <ele>243</ele>
        <time>2021-05-31T07:42:29.29Z</time>
      </trkpt>
      <trkpt lat="44.42962" lon="4.93207">
        <ele>237</ele>
        <time>2021-05-31T07:43:52.80Z</time>
      </trkpt>
      <trkpt lat="44.4291" lon="4.9323">
        <ele>232</ele>
        <time>2021-05-31T07:44:54.05Z</time>
      </trkpt>
      <trkpt lat="44.42826" lon="4.93193">
        <ele>232</ele>
        <time>2021-05-31T07:46:31.05Z</time>
      </trkpt>
      <trkpt lat="44.42721" lon="4.93086">
        <ele>232</ele>
        <time>2021-05-31T07:48:57Z</time>
      </trkpt>
      <trkpt lat="44.42591" lon="4.93009">
        <ele>233</ele>
        <time>2021-05-31T07:51:37.03Z</time>
      </trkpt>
      <trkpt lat="44.42519" lon="4.93005">
        <ele>234</ele>
        <time>2021-05-31T07:52:59.27Z</time>
      </trkpt>
      <trkpt lat="44.42495" lon="4.92934">
        <ele>235</ele>
        <time>2021-05-31T07:54:04.49Z</time>
      </trkpt>
      <trkpt lat="44.42495" lon="4.92921">
        <ele>235</ele>
        <time>2021-05-31T07:54:15.04Z</time>
      </trkpt>
      <trkpt lat="44.42501" lon="4.929">
        <ele>236</ele>
        <time>2021-05-31T07:54:35.22Z</time>
      </trkpt>
      <trkpt lat="44.42512" lon="4.92873">
        <ele>238</ele>
        <time>2021-05-31T07:55:02.84Z</time>
      </trkpt>
      <trkpt lat="44.42529" lon="4.92845">
        <ele>239</ele>
        <time>2021-05-31T07:55:34.04Z</time>
      </trkpt>
      <trkpt lat="44.42534" lon="4.92821">
        <ele>239</ele>
        <time>2021-05-31T07:55:55.47Z</time>
      </trkpt>
      <trkpt lat="44.42542" lon="4.92804">
        <ele>240</ele>
        <time>2021-05-31T07:56:11.59Z</time>
      </trkpt>
      <trkpt lat="44.42546" lon="4.9277">
        <ele>241</ele>
        <time>2021-05-31T07:56:40.24Z</time>
      </trkpt>
      <trkpt lat="44.42542" lon="4.92722">
        <ele>241</ele>
        <time>2021-05-31T07:57:21.36Z</time>
      </trkpt>
      <trkpt lat="44.42543" lon="4.92708">
        <ele>242</ele>
        <time>2021-05-31T07:57:32.88Z</time>
      </trkpt>
      <trkpt lat="44.42545" lon="4.927">
        <ele>242</ele>
        <time>2021-05-31T07:57:40.12Z</time>
      </trkpt>
      <trkpt lat="44.42551" lon="4.92693">
        <ele>243</ele>
        <time>2021-05-31T07:57:49.63Z</time>
      </trkpt>
      <trkpt lat="44.42549" lon="4.92669">
        <ele>244</ele>
        <time>2021-05-31T07:58:11.95Z</time>
      </trkpt>
      <trkpt lat="44.42557" lon="4.92648">
        <ele>245</ele>
        <time>2021-05-31T07:58:32.21Z</time>
      </trkpt>
      <trkpt lat="44.4256" lon="4.9263">
        <ele>246</ele>
        <time>2021-05-31T07:58:48.59Z</time>
      </trkpt>
      <trkpt lat="44.42557" lon="4.92617">
        <ele>246</ele>
        <time>2021-05-31T07:59:00.53Z</time>
      </trkpt>
      <trkpt lat="44.42569" lon="4.92602">
        <ele>247</ele>
        <time>2021-05-31T07:59:18.81Z</time>
      </trkpt>
      <trkpt lat="44.42577" lon="4.926">
        <ele>247</ele>
        <time>2021-05-31T07:59:28.78Z</time>
      </trkpt>
      <trkpt lat="44.42607" lon="4.92615">
        <ele>249</ele>
        <time>2021-05-31T08:00:09.41Z</time>
      </trkpt>
      <trkpt lat="44.42622" lon="4.92614">
        <ele>250</ele>
        <time>2021-05-31T08:00:27.65Z</time>
      </trkpt>
      <trkpt lat="44.42631" lon="4.92607">
        <ele>251</ele>
        <time>2021-05-31T08:00:40.67Z</time>
      </trkpt>
      <trkpt lat="44.42659" lon="4.92608">
        <ele>253</ele>
        <time>2021-05-31T08:01:14.55Z</time>
      </trkpt>
      <trkpt lat="44.42663" lon="4.92601">
        <ele>253</ele>
        <time>2021-05-31T08:01:22.07Z</time>
      </trkpt>
      <trkpt lat="44.42665" lon="4.92549">
        <ele>254</ele>
        <time>2021-05-31T08:02:07.76Z</time>
      </trkpt>
      <trkpt lat="44.4267" lon="4.92531">
        <ele>255</ele>
        <time>2021-05-31T08:02:24.50Z</time>
      </trkpt>
      <trkpt lat="44.4269" lon="4.92525">
        <ele>257</ele>
        <time>2021-05-31T08:02:49.90Z</time>
      </trkpt>
      <trkpt lat="44.4271" lon="4.92505">
        <ele>258</ele>
        <time>2021-05-31T08:03:20.67Z</time>
      </trkpt>
      <trkpt lat="44.42729" lon="4.92499">
        <ele>259</ele>
        <time>2021-05-31T08:03:44.53Z</time>
      </trkpt>
      <trkpt lat="44.42757" lon="4.92481">
        <ele>262</ele>
        <time>2021-05-31T08:04:21.47Z</time>
      </trkpt>
      <trkpt lat="44.42766" lon="4.92467">
        <ele>262</ele>
        <time>2021-05-31T08:04:38.22Z</time>
      </trkpt>
      <trkpt lat="44.42784" lon="4.92422">
        <ele>263</ele>
        <time>2021-05-31T08:05:22.53Z</time>
      </trkpt>
      <trkpt lat="44.42804" lon="4.92406">
        <ele>265</ele>
        <time>2021-05-31T08:05:54.91Z</time>
      </trkpt>
      <trkpt lat="44.42825" lon="4.92396">
        <ele>268</ele>
        <time>2021-05-31T08:06:25.23Z</time>
      </trkpt>
      <trkpt lat="44.42872" lon="4.92405">
        <ele>273</ele>
        <time>2021-05-31T08:07:22.50Z</time>
      </trkpt>
      <trkpt lat="44.42889" lon="4.92403">
        <ele>273</ele>
        <time>2021-05-31T08:07:44.20Z</time>
      </trkpt>
      <trkpt lat="44.4289" lon="4.92396">
        <ele>273</ele>
        <time>2021-05-31T08:07:49.35Z</time>
      </trkpt>
      <trkpt lat="44.4287" lon="4.92401">
        <ele>273</ele>
        <time>2021-05-31T08:08:11.82Z</time>
      </trkpt>
      <trkpt lat="44.42825" lon="4.92401">
        <ele>268</ele>
        <time>2021-05-31T08:09:05.44Z</time>
      </trkpt>
      <trkpt lat="44.42787" lon="4.92422">
        <ele>264</ele>
        <time>2021-05-31T08:09:51.71Z</time>
      </trkpt>
      <trkpt lat="44.42764" lon="4.92463">
        <ele>262</ele>
        <time>2021-05-31T08:10:33.16Z</time>
      </trkpt>
      <trkpt lat="44.42755" lon="4.92487">
        <ele>261</ele>
        <time>2021-05-31T08:10:55.02Z</time>
      </trkpt>
      <trkpt lat="44.42728" lon="4.92502">
        <ele>259</ele>
        <time>2021-05-31T08:11:27.70Z</time>
      </trkpt>
      <trkpt lat="44.4271" lon="4.925">
        <ele>258</ele>
        <time>2021-05-31T08:11:48.90Z</time>
      </trkpt>
      <trkpt lat="44.42672" lon="4.92534">
        <ele>255</ele>
        <time>2021-05-31T08:12:38.19Z</time>
      </trkpt>
      <trkpt lat="44.42668" lon="4.9255">
        <ele>255</ele>
        <time>2021-05-31T08:12:51.59Z</time>
      </trkpt>
      <trkpt lat="44.42665" lon="4.92603">
        <ele>254</ele>
        <time>2021-05-31T08:13:33.98Z</time>
      </trkpt>
      <trkpt lat="44.4266" lon="4.92611">
        <ele>253</ele>
        <time>2021-05-31T08:13:42.77Z</time>
      </trkpt>
      <trkpt lat="44.4263" lon="4.92611">
        <ele>251</ele>
        <time>2021-05-31T08:14:16.68Z</time>
      </trkpt>
      <trkpt lat="44.42622" lon="4.92619">
        <ele>250</ele>
        <time>2021-05-31T08:14:28.12Z</time>
      </trkpt>
      <trkpt lat="44.42606" lon="4.92619">
        <ele>249</ele>
        <time>2021-05-31T08:14:46.73Z</time>
      </trkpt>
      <trkpt lat="44.42575" lon="4.92605">
        <ele>247</ele>
        <time>2021-05-31T08:15:22.56Z</time>
      </trkpt>
      <trkpt lat="44.42561" lon="4.92618">
        <ele>246</ele>
        <time>2021-05-31T08:15:41.94Z</time>
      </trkpt>
      <trkpt lat="44.42563" lon="4.92632">
        <ele>246</ele>
        <time>2021-05-31T08:15:52.93Z</time>
      </trkpt>
      <trkpt lat="44.42559" lon="4.92652">
        <ele>245</ele>
        <time>2021-05-31T08:16:09.60Z</time>
      </trkpt>
      <trkpt lat="44.42552" lon="4.92668">
        <ele>244</ele>
        <time>2021-05-31T08:16:24.82Z</time>
      </trkpt>
      <trkpt lat="44.42554" lon="4.92693">
        <ele>243</ele>
        <time>2021-05-31T08:16:44.54Z</time>
      </trkpt>
      <trkpt lat="44.42545" lon="4.92721">
        <ele>242</ele>
        <time>2021-05-31T08:17:09.21Z</time>
      </trkpt>
      <trkpt lat="44.42549" lon="4.92774">
        <ele>241</ele>
        <time>2021-05-31T08:17:51.28Z</time>
      </trkpt>
      <trkpt lat="44.42544" lon="4.92803">
        <ele>240</ele>
        <time>2021-05-31T08:18:15.24Z</time>
      </trkpt>
      <trkpt lat="44.42532" lon="4.92847">
        <ele>239</ele>
        <time>2021-05-31T08:18:52.58Z</time>
      </trkpt>
      <trkpt lat="44.42513" lon="4.92877">
        <ele>238</ele>
        <time>2021-05-31T08:19:24.37Z</time>
      </trkpt>
      <trkpt lat="44.42498" lon="4.92921">
        <ele>235</ele>
        <time>2021-05-31T08:20:03.32Z</time>
      </trkpt>
      <trkpt lat="44.42498" lon="4.92935">
        <ele>235</ele>
        <time>2021-05-31T08:20:14.44Z</time>
      </trkpt>
      <trkpt lat="44.42505" lon="4.92957">
        <ele>235</ele>
        <time>2021-05-31T08:20:33.55Z</time>
      </trkpt>
      <trkpt lat="44.42515" lon="4.93007">
        <ele>235</ele>
        <time>2021-05-31T08:21:14.57Z</time>
      </trkpt>
      <trkpt lat="44.42498" lon="4.93017">
        <ele>235</ele>
        <time>2021-05-31T08:21:34.21Z</time>
      </trkpt>
      <trkpt lat="44.42395" lon="4.92965">
        <ele>235</ele>
        <time>2021-05-31T08:23:36.80Z</time>
      </trkpt>
      <trkpt lat="44.42296" lon="4.92905">
        <ele>235</ele>
        <time>2021-05-31T08:25:36.81Z</time>
      </trkpt>
      <trkpt lat="44.42241" lon="4.92925">
        <ele>233</ele>
        <time>2021-05-31T08:26:39.33Z</time>
      </trkpt>
      <trkpt lat="44.4222" lon="4.92948">
        <ele>232</ele>
        <time>2021-05-31T08:27:09.19Z</time>
      </trkpt>
      <trkpt lat="44.42197" lon="4.92956">
        <ele>231</ele>
        <time>2021-05-31T08:27:35.42Z</time>
      </trkpt>
      <trkpt lat="44.42146" lon="4.92954">
        <ele>228</ele>
        <time>2021-05-31T08:28:31.98Z</time>
      </trkpt>
      <trkpt lat="44.42047" lon="4.92917">
        <ele>224</ele>
        <time>2021-05-31T08:30:26.39Z</time>
      </trkpt>
      <trkpt lat="44.42015" lon="4.9292">
        <ele>222</ele>
        <time>2021-05-31T08:31:02.38Z</time>
      </trkpt>
      <trkpt lat="44.41964" lon="4.92904">
        <ele>219</ele>
        <time>2021-05-31T08:31:59.98Z</time>
      </trkpt>
      <trkpt lat="44.41923" lon="4.92927">
        <ele>218</ele>
        <time>2021-05-31T08:32:48.55Z</time>
      </trkpt>
      <trkpt lat="44.41913" lon="4.92918">
        <ele>217</ele>
        <time>2021-05-31T08:33:02.03Z</time>
      </trkpt>
      <trkpt lat="44.4189" lon="4.92912">
        <ele>216</ele>
        <time>2021-05-31T08:33:28.63Z</time>
      </trkpt>
      <trkpt lat="44.41849" lon="4.92942">
        <ele>215</ele>
        <time>2021-05-31T08:34:19.71Z</time>
      </trkpt>
      <trkpt lat="44.41786" lon="4.92953">
        <ele>212</ele>
        <time>2021-05-31T08:35:30.14Z</time>
      </trkpt>
      <trkpt lat="44.41832" lon="4.93266">
        <ele>209</ele>
        <time>2021-05-31T08:39:44.62Z</time>
      </trkpt>
      <trkpt lat="44.4184" lon="4.93357">
        <ele>209</ele>
        <time>2021-05-31T08:40:57.33Z</time>
      </trkpt>
      <trkpt lat="44.41824" lon="4.9341">
        <ele>208</ele>
        <time>2021-05-31T08:41:43.34Z</time>
      </trkpt>
      <trkpt lat="44.41809" lon="4.93421">
        <ele>208</ele>
        <time>2021-05-31T08:42:01.74Z</time>
      </trkpt>
      <trkpt lat="44.41779" lon="4.93427">
        <ele>207</ele>
        <time>2021-05-31T08:42:35.70Z</time>
      </trkpt>
      <trkpt lat="44.41711" lon="4.934">
        <ele>202</ele>
        <time>2021-05-31T08:43:54.58Z</time>
      </trkpt>
      <trkpt lat="44.41713" lon="4.93364">
        <ele>202</ele>
        <time>2021-05-31T08:44:23.61Z</time>
      </trkpt>
      <trkpt lat="44.41698" lon="4.93313">
        <ele>200</ele>
        <time>2021-05-31T08:45:07.80Z</time>
      </trkpt>
      <trkpt lat="44.41679" lon="4.93286">
        <ele>200</ele>
        <time>2021-05-31T08:45:37.92Z</time>
      </trkpt>
      <trkpt lat="44.41634" lon="4.93266">
        <ele>200</ele>
        <time>2021-05-31T08:46:29.80Z</time>
      </trkpt>
      <trkpt lat="44.4163" lon="4.93198">
        <ele>200</ele>
        <time>2021-05-31T08:47:23.78Z</time>
      </trkpt>
      <trkpt lat="44.4162" lon="4.92921">
        <ele>199</ele>
        <time>2021-05-31T08:51:04.92Z</time>
      </trkpt>
      <trkpt lat="44.41562" lon="4.92921">
        <ele>200</ele>
        <time>2021-05-31T08:52:10.22Z</time>
      </trkpt>
      <trkpt lat="44.41515" lon="4.92882">
        <ele>200</ele>
        <time>2021-05-31T08:53:12.13Z</time>
      </trkpt>
      <trkpt lat="44.41466" lon="4.92855">
        <ele>200</ele>
        <time>2021-05-31T08:54:11Z</time>
      </trkpt>
      <trkpt lat="44.41439" lon="4.92872">
        <ele>201</ele>
        <time>2021-05-31T08:54:44.24Z</time>
      </trkpt>
      <trkpt lat="44.41375" lon="4.92863">
        <ele>201</ele>
        <time>2021-05-31T08:55:55.71Z</time>
      </trkpt>
      <trkpt lat="44.41355" lon="4.92838">
        <ele>201</ele>
        <time>2021-05-31T08:56:26.58Z</time>
      </trkpt>
      <trkpt lat="44.41343" lon="4.928">
        <ele>202</ele>
        <time>2021-05-31T08:57:02.11Z</time>
      </trkpt>
      <trkpt lat="44.4135" lon="4.92775">
        <ele>203</ele>
        <time>2021-05-31T08:57:23.97Z</time>
      </trkpt>
      <trkpt lat="44.41362" lon="4.92751">
        <ele>203</ele>
        <time>2021-05-31T08:57:48.23Z</time>
      </trkpt>
      <trkpt lat="44.41349" lon="4.92674">
        <ele>203</ele>
        <time>2021-05-31T08:58:51.02Z</time>
      </trkpt>
      <trkpt lat="44.41331" lon="4.92591">
        <ele>203</ele>
        <time>2021-05-31T09:00:00.32Z</time>
      </trkpt>
      <trkpt lat="44.41296" lon="4.9249">
        <ele>203</ele>
        <time>2021-05-31T09:01:29.51Z</time>
      </trkpt>
      <trkpt lat="44.41286" lon="4.92428">
        <ele>203</ele>
        <time>2021-05-31T09:02:20.29Z</time>
      </trkpt>
      <trkpt lat="44.41271" lon="4.92383">
        <ele>203</ele>
        <time>2021-05-31T09:03:00.02Z</time>
      </trkpt>
      <trkpt lat="44.41255" lon="4.92358">
        <ele>203</ele>
        <time>2021-05-31T09:03:26.59Z</time>
      </trkpt>
      <trkpt lat="44.41244" lon="4.92329">
        <ele>202</ele>
        <time>2021-05-31T09:03:53.14Z</time>
      </trkpt>
      <trkpt lat="44.41234" lon="4.92291">
        <ele>202</ele>
        <time>2021-05-31T09:04:24.75Z</time>
      </trkpt>
      <trkpt lat="44.41216" lon="4.92188">
        <ele>202</ele>
        <time>2021-05-31T09:05:55.47Z</time>
      </trkpt>
      <trkpt lat="44.41285" lon="4.92199">
        <ele>208</ele>
        <time>2021-05-31T09:07:19Z</time>
      </trkpt>
      <trkpt lat="44.41358" lon="4.92208">
        <ele>209</ele>
        <time>2021-05-31T09:08:41.44Z</time>
      </trkpt>
      <trkpt lat="44.41462" lon="4.92235">
        <ele>209</ele>
        <time>2021-05-31T09:10:39.10Z</time>
      </trkpt>
      <trkpt lat="44.4151" lon="4.92236">
        <ele>209</ele>
        <time>2021-05-31T09:11:31.99Z</time>
      </trkpt>
      <trkpt lat="44.41616" lon="4.92272">
        <ele>209</ele>
        <time>2021-05-31T09:13:33.87Z</time>
      </trkpt>
      <trkpt lat="44.4161" lon="4.92137">
        <ele>209</ele>
        <time>2021-05-31T09:15:21.75Z</time>
      </trkpt>
      <trkpt lat="44.41578" lon="4.91915">
        <ele>206</ele>
        <time>2021-05-31T09:18:22.33Z</time>
      </trkpt>
      <trkpt lat="44.41583" lon="4.91873">
        <ele>204</ele>
        <time>2021-05-31T09:18:55.55Z</time>
      </trkpt>
      <trkpt lat="44.41577" lon="4.91848">
        <ele>204</ele>
        <time>2021-05-31T09:19:17.01Z</time>
      </trkpt>
      <trkpt lat="44.41551" lon="4.91786">
        <ele>203</ele>
        <time>2021-05-31T09:20:13.82Z</time>
      </trkpt>
      <trkpt lat="44.41545" lon="4.91736">
        <ele>203</ele>
        <time>2021-05-31T09:20:54.52Z</time>
      </trkpt>
      <trkpt lat="44.41563" lon="4.91621">
        <ele>201</ele>
        <time>2021-05-31T09:22:27.54Z</time>
      </trkpt>
      <trkpt lat="44.41589" lon="4.91587">
        <ele>200</ele>
        <time>2021-05-31T09:23:07.83Z</time>
      </trkpt>
      <trkpt lat="44.41602" lon="4.91537">
        <ele>198</ele>
        <time>2021-05-31T09:23:52.08Z</time>
      </trkpt>
      <trkpt lat="44.416" lon="4.91491">
        <ele>194</ele>
        <time>2021-05-31T09:24:29.97Z</time>
      </trkpt>
      <trkpt lat="44.41609" lon="4.91441">
        <ele>192</ele>
        <time>2021-05-31T09:25:11.19Z</time>
      </trkpt>
      <trkpt lat="44.41601" lon="4.91391">
        <ele>192</ele>
        <time>2021-05-31T09:25:51.59Z</time>
      </trkpt>
      <trkpt lat="44.41614" lon="4.91353">
        <ele>191</ele>
        <time>2021-05-31T09:26:25.54Z</time>
      </trkpt>
      <trkpt lat="44.41616" lon="4.91231">
        <ele>191</ele>
        <time>2021-05-31T09:28:02.88Z</time>
      </trkpt>
      <trkpt lat="44.41633" lon="4.91174">
        <ele>189</ele>
        <time>2021-05-31T09:28:52.02Z</time>
      </trkpt>
      <trkpt lat="44.41696" lon="4.9105">
        <ele>189</ele>
        <time>2021-05-31T09:30:53.74Z</time>
      </trkpt>
      <trkpt lat="44.41801" lon="4.91044">
        <ele>190</ele>
        <time>2021-05-31T09:32:52.97Z</time>
      </trkpt>
      <trkpt lat="44.41857" lon="4.91035">
        <ele>191</ele>
        <time>2021-05-31T09:33:56.22Z</time>
      </trkpt>
      <trkpt lat="44.41928" lon="4.9103">
        <ele>191</ele>
        <time>2021-05-31T09:35:14.71Z</time>
      </trkpt>
      <trkpt lat="44.41968" lon="4.91033">
        <ele>191</ele>
        <time>2021-05-31T09:36:01.92Z</time>
      </trkpt>
      <trkpt lat="44.41993" lon="4.91016">
        <ele>193</ele>
        <time>2021-05-31T09:36:35.61Z</time>
      </trkpt>
      <trkpt lat="44.42038" lon="4.90969">
        <ele>195</ele>
        <time>2021-05-31T09:37:44.04Z</time>
      </trkpt>
      <trkpt lat="44.42063" lon="4.90925">
        <ele>198</ele>
        <time>2021-05-31T09:38:35.16Z</time>
      </trkpt>
    </trkseg>
  </trk>
</gpx>